Monday, April 27, 2015, 2:29 PM EDT

KW99, Petersburg, Grant County Airport

Location: Petersburg, WV, United States Lat: 38.983
Local Time: 2:29 PM EDT (18:29 GMT) Lon: -79.133
Time Zone: US/Eastern Elev: 961 ft

Show me the last for .
Show Decoded

2015-04-27 14:15 METAR KW99 271815Z AUTO 28007KT 10SM BKN060 BKN070 BKN080 11/M01 A2987 RMK AO2
                 T01071014 =
2015-04-27 13:35 METAR KW99 271735Z AUTO 32009G14KT 10SM SCT050 BKN060 OVC080 11/M01 A2987 RMK
                 AO2 T01081009 =
2015-04-27 13:15 METAR KW99 271715Z AUTO 31013G18KT 10SM BKN050 BKN065 OVC080 10/M01 A2987 RMK
                 AO2 T01041015 =
2015-04-27 12:55 METAR KW99 271655Z AUTO 34009KT 10SM OVC050 10/M02 A2987 RMK AO2 T01011021 =
2015-04-27 12:35 METAR KW99 271635Z AUTO 29009KT 10SM OVC050 10/M02 A2989 RMK AO2 T00951016 =
2015-04-27 12:15 METAR KW99 271615Z AUTO 29009G17KT 10SM OVC049 10/00 A2990 RMK AO2 T00951005 =
2015-04-27 11:55 METAR KW99 271555Z AUTO 31010KT 10SM OVC047 09/M01 A2990 RMK AO2 T00941009 =
2015-04-27 11:35 METAR KW99 271535Z AUTO 30011G14KT 10SM OVC045 09/M01 A2989 RMK AO2 T00931008 =
2015-04-27 11:15 METAR KW99 271515Z AUTO 32010KT 10SM OVC043 09/M01 A2989 RMK AO2 T00891014 =
2015-04-27 10:55 METAR KW99 271455Z AUTO 32010G14KT 10SM OVC043 09/M01 A2988 RMK AO2 T00891015 =
2015-04-27 10:35 METAR KW99 271435Z AUTO 31007G14KT 10SM OVC045 09/M01 A2987 RMK AO2 T00921010 =
2015-04-27 10:15 METAR KW99 271415Z AUTO 34010G16KT 10SM OVC047 09/M01 A2986 RMK AO2 T00941009 =
2015-04-27 09:55 METAR KW99 271355Z AUTO 33011KT 10SM BKN047 BKN050 09/M01 A2985 RMK AO2
                 T00901012 =
2015-04-27 09:35 METAR KW99 271335Z AUTO 32011G20KT 10SM SCT041 SCT047 09/M01 A2985 RMK AO2
                 T00911008 =
2015-04-27 09:15 METAR KW99 271315Z AUTO 28007KT 10SM SCT038 SCT045 10/01 A2984 RMK AO2 T00950006
                 =
2015-04-27 08:55 METAR KW99 271255Z AUTO 00000KT 10SM CLR 08/02 A2984 RMK AO2 T00840020 =
2015-04-27 08:35 METAR KW99 271235Z AUTO 00000KT 10SM CLR 07/02 A2984 RMK AO2 T00700019 =
2015-04-27 08:15 METAR KW99 271215Z AUTO 00000KT 10SM CLR 06/01 A2984 RMK AO2 T00560012 =
2015-04-27 07:55 METAR KW99 271155Z AUTO 00000KT 10SM CLR 05/01 A2984 RMK AO2 T00450012 10045
                 20008 =
2015-04-27 07:35 METAR KW99 271135Z AUTO 00000KT 10SM CLR 03/01 A2984 RMK AO2 T00300010 =
2015-04-27 07:15 METAR KW99 271115Z AUTO 00000KT 10SM CLR 02/00 A2983 RMK AO2 T00161004 =
2015-04-27 06:55 METAR KW99 271055Z AUTO 00000KT 10SM CLR 01/M01 A2983 RMK AO2 T00091011 =
2015-04-27 06:35 METAR KW99 271035Z AUTO 00000KT 10SM CLR 02/00 A2982 RMK AO2 T00210000 =
2015-04-27 06:15 METAR KW99 271015Z AUTO 00000KT 10SM CLR 02/00 A2982 RMK AO2 T00161004 =
2015-04-27 05:55 METAR KW99 270955Z AUTO 00000KT 10SM CLR 02/00 A2981 RMK AO2 T00201002 =
2015-04-27 05:35 METAR KW99 270935Z AUTO 00000KT 10SM CLR 02/00 A2982 RMK AO2 T00221001 =
2015-04-27 05:15 METAR KW99 270915Z AUTO 00000KT 10SM SCT060 02/00 A2981 RMK AO2 T00201005 =
2015-04-27 04:55 METAR KW99 270855Z AUTO 00000KT 10SM BKN060 03/00 A2981 RMK AO2 T00260000 =
2015-04-27 04:35 METAR KW99 270835Z AUTO 00000KT 10SM CLR 02/00 A2981 RMK AO2 T00221002 =
2015-04-27 04:15 METAR KW99 270815Z AUTO 00000KT 10SM CLR 02/00 A2981 RMK AO2 T00231004 =
2015-04-27 03:55 METAR KW99 270755Z AUTO 00000KT 10SM CLR 02/M01 A2981 RMK AO2 T00181008 =
2015-04-27 03:35 METAR KW99 270735Z AUTO 00000KT 10SM CLR 02/M01 A2981 RMK AO2 T00201006 =
2015-04-27 03:15 METAR KW99 270715Z AUTO 00000KT 10SM CLR 02/M01 A2981 RMK AO2 T00181011 =
2015-04-27 02:55 METAR KW99 270655Z AUTO 00000KT 10SM CLR 02/M01 A2980 RMK AO2 T00201010 =
2015-04-27 02:35 METAR KW99 270635Z AUTO 00000KT 10SM CLR 02/M01 A2980 RMK AO2 T00231008 =
2015-04-27 02:15 METAR KW99 270615Z AUTO 00000KT 10SM CLR 03/00 A2981 RMK AO2 T00271005 =
2015-04-27 01:55 METAR KW99 270555Z AUTO 00000KT 10SM CLR 03/00 A2980 RMK AO2 T00340002 10143
                 20034 401650033 =
2015-04-27 01:35 METAR KW99 270535Z AUTO 00000KT 10SM CLR 04/00 A2980 RMK AO2 T00390003 =
2015-04-27 01:15 METAR KW99 270515Z AUTO 00000KT 10SM CLR 05/01 A2980 RMK AO2 T00460005 =
2015-04-27 00:55 METAR KW99 270455Z AUTO 00000KT 10SM CLR 05/01 A2980 RMK AO2 T00460006 =
2015-04-27 00:35 METAR KW99 270435Z AUTO 00000KT 10SM CLR 05/01 A2980 RMK AO2 T00480010 =
2015-04-27 00:15 METAR KW99 270415Z AUTO 00000KT 10SM CLR 05/00 A2980 RMK AO2 T00490003 =
2015-04-26 23:55 METAR KW99 270355Z AUTO 00000KT 10SM CLR 06/01 A2979 RMK AO2 T00630012 =
2015-04-26 23:35 METAR KW99 270335Z AUTO 00000KT 10SM CLR 05/00 A2979 RMK AO2 T00530001 =
2015-04-26 23:15 METAR KW99 270315Z AUTO 00000KT 10SM SCT085 06/00 A2979 RMK AO2 T00600002 =
2015-04-26 22:55 METAR KW99 270255Z AUTO 00000KT 10SM BKN085 06/00 A2978 RMK AO2 T00600003 =
2015-04-26 22:35 METAR KW99 270235Z AUTO 00000KT 10SM BKN085 07/00 A2978 RMK AO2 T00670002 =
2015-04-26 22:15 METAR KW99 270215Z AUTO 00000KT 10SM BKN085 08/00 A2977 RMK AO2 T00840002 =
2015-04-26 21:55 METAR KW99 270155Z AUTO 00000KT 10SM BKN085 09/M01 A2977 RMK AO2 T00921009 =
2015-04-26 21:35 METAR KW99 270135Z AUTO 32004KT 10SM SCT085 10/M01 A2977 RMK AO2 T00971015 =
2015-04-26 21:15 METAR KW99 270115Z AUTO 29005KT 10SM CLR 10/M02 A2976 RMK AO2 T01041020 =
2015-04-26 20:55 METAR KW99 270055Z AUTO 31006KT 10SM CLR 12/M03 A2975 RMK AO2 T01211033 =
2015-04-26 20:35 METAR KW99 270035Z AUTO 31007KT 10SM CLR 13/M04 A2974 RMK AO2 T01291042 =
2015-04-26 20:15 METAR KW99 270015Z AUTO 31007KT 10SM CLR 13/M04 A2974 RMK AO2 T01341037 =
2015-04-26 19:55 METAR KW99 262355Z AUTO 32007KT 10SM CLR 14/M04 A2973 RMK AO2 T01431042 10165
                 20131 =
2015-04-26 19:35 METAR KW99 262335Z AUTO 33006KT 10SM CLR 15/M04 A2971 RMK AO2 T01481038 =
2015-04-26 19:15 METAR KW99 262315Z AUTO 33006KT 10SM CLR 16/M01 A2970 RMK AO2 T01571006 =
2015-04-26 18:55 METAR KW99 262255Z AUTO 00000KT 10SM CLR 16/00 A2970 RMK AO2 T01611005 =
2015-04-26 18:35 METAR KW99 262235Z AUTO 00000KT 10SM SCT090 16/00 A2970 RMK AO2 T01550003 =
2015-04-26 18:15 METAR KW99 262215Z AUTO 00000KT 10SM SCT090 16/M01 A2970 RMK AO2 T01551014 =
2015-04-26 17:55 METAR KW99 262155Z AUTO 00000KT 10SM SCT090 16/M01 A2970 RMK AO2 T01601009 =
2015-04-26 17:35 METAR KW99 262135Z AUTO 00000KT 10SM SCT090 16/00 A2969 RMK AO2 T01550001 =
2015-04-26 17:15 METAR KW99 262115Z AUTO 00000KT 10SM SCT080 16/M01 A2969 RMK AO2 T01581011 =
2015-04-26 16:55 METAR KW99 262055Z AUTO 00000KT 10SM SCT080 16/M01 A2969 RMK AO2 T01591010 =
2015-04-26 16:35 METAR KW99 262035Z AUTO 13004KT 10SM SCT080 16/M01 A2969 RMK AO2 T01591013 =
2015-04-26 16:15 METAR KW99 262015Z AUTO 23005KT 10SM SCT080 15/00 A2970 RMK AO2 T01531001 =
2015-04-26 15:55 METAR KW99 261955Z AUTO 00000KT 10SM CLR 16/M01 A2970 RMK AO2 T01561012 =
2015-04-26 15:35 METAR KW99 261935Z AUTO 12006KT 10SM CLR 16/M01 A2971 RMK AO2 T01561009 =
2015-04-26 15:15 METAR KW99 261915Z AUTO 14004KT 10SM CLR 15/00 A2972 RMK AO2 T01510002 =
2015-04-26 14:55 METAR KW99 261855Z AUTO 13003KT 10SM CLR 15/01 A2973 RMK AO2 T01470006 =
2015-04-26 14:35 METAR KW99 261835Z AUTO 17003KT 10SM CLR 14/01 A2974 RMK AO2 T01430007 =

Support USWX by starting your Amazon purchase here.